Time;durP1;ratioP1;P1;durP2;ratioP2;P2;SDS_P1;SDS_P2;PMS_P1;PMS_P2;Temp;Humidity;BMP_temperature;BMP_pressure;BME280_temperature;BME280_humidity;BME280_pressure;Samples;Min_cycle;Max_cycle;Signal;HPM_P1;HPM_P2
2022/08/21 00:00:00;;;;;;;6.30;4.20;;;17.80;45.80;;;;;;5099953;28;21070;-68
2022/08/21 00:02:29;;;;;;;7.67;4.30;;;17.80;45.70;;;;;;5101207;28;20472;-67
2022/08/21 00:04:56;;;;;;;7.17;3.97;;;17.80;45.90;;;;;;5098598;28;20566;-68
2022/08/21 00:07:23;;;;;;;6.60;3.80;;;17.80;45.80;;;;;;5104648;28;20462;-68
2022/08/21 00:09:50;;;;;;;8.00;4.53;;;17.70;45.90;;;;;;5103613;28;20454;-67
2022/08/21 00:12:16;;;;;;;6.30;4.03;;;17.70;46.10;;;;;;5103886;28;20459;-67
2022/08/21 00:14:45;;;;;;;6.63;4.20;;;17.70;46.00;;;;;;5101121;28;20479;-68
2022/08/21 00:17:12;;;;;;;7.83;4.30;;;17.70;46.20;;;;;;5104179;28;20474;-67
2022/08/21 00:19:39;;;;;;;7.53;4.70;;;17.70;46.30;;;;;;5103999;28;20476;-69
2022/08/21 00:22:05;;;;;;;6.27;4.20;;;17.70;46.30;;;;;;5105017;28;20447;-68
2022/08/21 00:24:32;;;;;;;6.83;4.60;;;17.60;46.30;;;;;;5107809;28;21034;-67
2022/08/21 00:26:59;;;;;;;7.30;4.53;;;17.60;46.40;;;;;;5104842;28;20466;-66
2022/08/21 00:29:26;;;;;;;7.00;4.60;;;17.60;46.30;;;;;;5109523;28;20470;-68
2022/08/21 00:31:54;;;;;;;6.97;4.23;;;17.60;46.40;;;;;;5108078;28;20470;-67
2022/08/21 00:34:21;;;;;;;6.67;4.50;;;17.60;46.60;;;;;;5108978;27;20475;-66
2022/08/21 00:36:48;;;;;;;8.43;4.53;;;17.50;46.50;;;;;;5107436;28;20463;-70
2022/08/21 00:39:15;;;;;;;7.40;4.90;;;17.50;46.60;;;;;;5102688;28;20479;-69
2022/08/21 00:41:43;;;;;;;6.87;4.17;;;17.50;46.60;;;;;;5106628;28;20464;-67
2022/08/21 00:44:12;;;;;;;7.37;4.47;;;17.50;46.60;;;;;;5104198;28;20487;-68
2022/08/21 00:46:40;;;;;;;6.63;4.37;;;17.50;46.40;;;;;;5110830;27;20846;-67
2022/08/21 00:49:11;;;;;;;7.00;4.97;;;17.40;46.40;;;;;;5105178;28;20463;-66
2022/08/21 00:51:43;;;;;;;9.03;4.13;;;17.40;46.40;;;;;;5106163;28;20450;-67
2022/08/21 00:54:11;;;;;;;7.63;5.13;;;17.50;46.70;;;;;;5107632;27;20908;-68
2022/08/21 00:56:38;;;;;;;6.93;4.33;;;17.40;46.40;;;;;;5108546;28;20478;-66
2022/08/21 00:59:06;;;;;;;7.30;5.00;;;17.40;46.50;;;;;;5103545;28;22105;-68
2022/08/21 01:01:33;;;;;;;6.70;4.60;;;17.40;46.50;;;;;;5107476;27;20482;-67
2022/08/21 01:04:01;;;;;;;7.77;4.90;;;17.40;46.30;;;;;;5102609;28;21017;-68
2022/08/21 01:06:29;;;;;;;7.83;4.60;;;17.30;46.30;;;;;;5105489;28;20458;-66
2022/08/21 01:08:56;;;;;;;8.30;4.73;;;17.30;46.20;;;;;;5104498;28;20461;-68
2022/08/21 01:11:23;;;;;;;6.97;4.73;;;17.30;46.20;;;;;;5104267;28;20451;-66
2022/08/21 01:13:51;;;;;;;8.23;4.47;;;17.20;46.00;;;;;;5102693;28;20489;-69
2022/08/21 01:16:21;;;;;;;9.67;4.40;;;17.20;46.10;;;;;;5106291;27;20463;-67
2022/08/21 01:18:48;;;;;;;7.10;5.17;;;17.20;46.10;;;;;;5099222;28;20467;-67
2022/08/21 01:21:19;;;;;;;6.90;4.50;;;17.20;46.10;;;;;;5105008;28;20900;-66
2022/08/21 01:23:49;;;;;;;7.17;4.90;;;17.10;46.30;;;;;;5103326;27;20482;-69
2022/08/21 01:26:19;;;;;;;8.03;5.10;;;17.10;46.30;;;;;;5106586;28;20462;-67
2022/08/21 01:28:52;;;;;;;7.50;5.10;;;17.10;46.50;;;;;;5102199;28;20463;-68
2022/08/21 01:31:23;;;;;;;7.93;5.20;;;17.10;46.40;;;;;;5105307;27;20475;-66
2022/08/21 01:33:49;;;;;;;8.30;5.00;;;17.10;47.00;;;;;;5103163;27;20483;-67
2022/08/21 01:36:18;;;;;;;8.63;5.20;;;17.00;46.30;;;;;;5106048;27;20455;-67
2022/08/21 01:38:46;;;;;;;7.37;5.13;;;17.00;46.10;;;;;;5099488;28;20475;-70
2022/08/21 01:41:14;;;;;;;7.70;4.83;;;17.00;46.00;;;;;;5105542;27;20528;-66
2022/08/21 01:43:41;;;;;;;7.33;5.20;;;17.00;46.00;;;;;;5103439;28;20494;-67
2022/08/21 01:46:08;;;;;;;8.90;5.33;;;16.90;46.10;;;;;;5105664;28;21086;-68
2022/08/21 01:48:35;;;;;;;8.93;6.10;;;16.90;46.10;;;;;;5104508;27;20458;-66
2022/08/21 01:51:03;;;;;;;8.60;5.27;;;16.90;46.10;;;;;;5104667;28;20536;-68
2022/08/21 01:53:31;;;;;;;9.53;5.73;;;16.90;46.10;;;;;;5107277;28;21031;-67
2022/08/21 01:55:58;;;;;;;10.97;5.13;;;16.80;46.40;;;;;;5105267;27;20463;-67
2022/08/21 01:58:25;;;;;;;8.60;6.20;;;16.80;45.70;;;;;;5104301;28;20467;-68
2022/08/21 02:00:51;;;;;;;8.63;4.83;;;16.70;45.80;;;;;;5100966;28;20475;-67
2022/08/21 02:03:19;;;;;;;9.10;6.00;;;16.70;45.70;;;;;;5099500;27;20520;-69
2022/08/21 02:05:45;;;;;;;7.80;5.53;;;16.70;45.70;;;;;;5104598;28;20463;-70
2022/08/21 02:08:12;;;;;;;10.27;5.67;;;16.70;45.70;;;;;;5103073;28;20468;-68
2022/08/21 02:10:41;;;;;;;7.50;5.80;;;16.60;45.60;;;;;;5102969;28;20459;-69
2022/08/21 02:13:08;;;;;;;11.60;6.47;;;16.60;45.80;;;;;;5104186;27;20487;-67
2022/08/21 02:15:36;;;;;;;10.33;7.00;;;16.60;45.50;;;;;;5104880;28;20531;-67
2022/08/21 02:18:03;;;;;;;8.83;6.50;;;16.60;45.30;;;;;;5103328;28;20836;-70
2022/08/21 02:20:32;;;;;;;10.93;7.33;;;16.50;45.60;;;;;;5103509;28;21014;-67
2022/08/21 02:23:00;;;;;;;10.27;6.77;;;16.50;45.60;;;;;;5103429;27;20460;-68
2022/08/21 02:25:28;;;;;;;10.40;7.20;;;16.50;45.60;;;;;;5104514;28;20882;-68
2022/08/21 02:27:56;;;;;;;9.23;7.17;;;16.40;45.50;;;;;;5104968;28;20455;-68
2022/08/21 02:30:26;;;;;;;10.63;7.33;;;16.40;45.60;;;;;;5100218;28;20462;-70
2022/08/21 02:32:53;;;;;;;10.30;7.87;;;16.40;45.60;;;;;;5103453;28;20970;-68
2022/08/21 02:35:20;;;;;;;10.93;7.70;;;16.40;45.80;;;;;;5102293;28;20524;-66
2022/08/21 02:37:52;;;;;;;10.50;8.20;;;16.40;45.60;;;;;;5104378;27;20455;-70
2022/08/21 02:40:20;;;;;;;9.77;7.30;;;16.50;45.90;;;;;;5101355;28;20471;-66
2022/08/21 02:42:48;;;;;;;11.30;8.20;;;16.40;45.90;;;;;;5100259;28;20494;-71
2022/08/21 02:45:18;;;;;;;11.93;7.93;;;16.50;46.00;;;;;;5103224;28;21053;-66
2022/08/21 02:47:49;;;;;;;16.67;9.40;;;16.50;46.40;;;;;;5104222;27;20456;-68
2022/08/21 02:50:19;;;;;;;10.90;7.30;;;16.50;46.50;;;;;;5104350;28;20451;-66
2022/08/21 02:52:46;;;;;;;10.33;7.30;;;16.50;46.50;;;;;;5103561;28;20469;-67
2022/08/21 02:55:13;;;;;;;11.47;7.60;;;16.60;46.30;;;;;;5103218;28;20463;-67
2022/08/21 02:57:40;;;;;;;11.93;7.90;;;16.60;46.50;;;;;;5105115;28;20467;-68
2022/08/21 03:00:09;;;;;;;10.90;8.13;;;16.60;46.50;;;;;;5100336;28;20475;-68
2022/08/21 03:02:38;;;;;;;13.50;8.20;;;16.60;46.60;;;;;;5103091;28;20483;-68
2022/08/21 03:05:06;;;;;;;16.20;7.50;;;16.60;46.60;;;;;;5101987;27;20490;-68
2022/08/21 03:07:33;;;;;;;19.00;7.80;;;16.60;46.50;;;;;;5103560;28;20464;-70
2022/08/21 03:10:00;;;;;;;12.63;7.43;;;16.60;46.60;;;;;;5102784;28;20456;-67
2022/08/21 03:12:27;;;;;;;11.40;7.40;;;16.60;46.70;;;;;;5104006;28;20965;-66
2022/08/21 03:14:54;;;;;;;16.03;7.70;;;16.60;46.60;;;;;;5100524;28;20479;-68
2022/08/21 03:17:21;;;;;;;13.80;7.60;;;16.60;46.50;;;;;;5104659;28;20472;-68
2022/08/21 03:19:49;;;;;;;11.63;7.30;;;16.60;46.40;;;;;;5104587;28;20475;-66
2022/08/21 03:22:17;;;;;;;12.73;6.70;;;16.60;46.20;;;;;;5103096;27;20520;-71
2022/08/21 03:24:45;;;;;;;9.50;7.50;;;16.60;46.30;;;;;;5103774;28;20499;-67
2022/08/21 03:27:13;;;;;;;7.90;6.10;;;16.50;46.40;;;;;;5102968;28;20492;-68
2022/08/21 03:29:40;;;;;;;9.80;6.97;;;16.50;46.20;;;;;;5103679;28;20893;-66
2022/08/21 03:32:09;;;;;;;12.50;6.77;;;16.50;45.80;;;;;;5099979;28;20475;-69
2022/08/21 03:34:35;;;;;;;9.20;5.87;;;16.50;45.80;;;;;;5104290;28;20471;-66
2022/08/21 03:37:05;;;;;;;11.20;6.20;;;16.50;45.90;;;;;;5102760;28;20951;-67
2022/08/21 03:39:32;;;;;;;7.40;5.90;;;16.50;45.90;;;;;;5104561;28;20770;-67
2022/08/21 03:41:59;;;;;;;9.50;5.80;;;16.50;45.80;;;;;;5098559;27;20472;-66
2022/08/21 03:44:28;;;;;;;8.73;6.37;;;16.50;45.70;;;;;;5103618;28;20497;-71
2022/08/21 03:46:55;;;;;;;12.87;6.60;;;16.40;45.50;;;;;;5101269;28;20463;-64
2022/08/21 03:49:22;;;;;;;8.37;6.50;;;16.40;45.60;;;;;;5102402;28;20458;-64
2022/08/21 03:51:49;;;;;;;8.30;6.50;;;16.40;45.60;;;;;;5102852;28;20447;-64
2022/08/21 03:54:17;;;;;;;7.60;6.10;;;16.40;45.70;;;;;;5101458;28;20862;-65
2022/08/21 03:56:44;;;;;;;8.37;6.43;;;16.30;45.60;;;;;;5100716;28;20455;-64
2022/08/21 03:59:11;;;;;;;14.50;6.90;;;16.30;45.70;;;;;;5100876;28;20487;-63
2022/08/21 04:01:38;;;;;;;9.33;6.17;;;16.30;45.70;;;;;;5095734;28;20895;-64
2022/08/21 04:04:06;;;;;;;8.23;6.00;;;16.30;45.80;;;;;;5100648;28;20585;-63
2022/08/21 04:06:33;;;;;;;7.33;5.57;;;16.30;45.70;;;;;;5103657;28;20455;-64
2022/08/21 04:09:00;;;;;;;7.90;5.50;;;16.20;45.80;;;;;;5102890;28;20523;-64
2022/08/21 04:11:28;;;;;;;7.80;6.10;;;16.20;45.70;;;;;;5102887;28;20463;-64
2022/08/21 04:13:55;;;;;;;7.37;5.47;;;16.20;45.80;;;;;;5096462;28;20842;-63
2022/08/21 04:16:22;;;;;;;10.80;5.50;;;16.20;45.80;;;;;;5100557;28;20456;-63
2022/08/21 04:18:49;;;;;;;8.50;5.57;;;16.30;45.70;;;;;;5104188;28;20451;-63
2022/08/21 04:21:16;;;;;;;7.47;5.27;;;16.30;45.70;;;;;;5101061;28;20567;-63
2022/08/21 04:23:43;;;;;;;9.53;6.20;;;16.20;45.80;;;;;;5102600;28;20472;-64
2022/08/21 04:26:11;;;;;;;7.00;5.23;;;16.20;45.80;;;;;;5101177;28;20470;-64
2022/08/21 04:28:39;;;;;;;7.10;5.27;;;16.20;46.50;;;;;;5103784;28;20451;-64
2022/08/21 04:31:06;;;;;;;7.27;5.40;;;16.20;45.90;;;;;;5114707;22;20496;-70
2022/08/21 04:33:33;;;;;;;9.47;5.50;;;16.20;45.70;;;;;;5087282;28;20488;-70
2022/08/21 04:36:00;;;;;;;9.47;5.43;;;16.30;45.80;;;;;;5088649;28;20944;-72
2022/08/21 04:38:27;;;;;;;7.97;5.03;;;16.30;45.70;;;;;;5084967;28;20952;-70
2022/08/21 04:40:54;;;;;;;7.50;5.83;;;16.20;45.60;;;;;;5079160;28;20484;-70
2022/08/21 04:43:23;;;;;;;7.20;5.60;;;16.30;45.50;;;;;;5063332;28;20457;-70
2022/08/21 04:45:52;;;;;;;8.63;5.97;;;16.20;45.40;;;;;;5063364;28;20453;-70
2022/08/21 04:48:21;;;;;;;13.73;6.20;;;16.20;45.30;;;;;;5067877;28;21257;-70
2022/08/21 04:50:52;;;;;;;7.73;5.43;;;16.30;45.30;;;;;;5064688;28;20480;-70
2022/08/21 04:53:23;;;;;;;9.73;6.17;;;16.30;45.20;;;;;;5058337;28;20490;-71
2022/08/21 04:55:52;;;;;;;10.20;5.07;;;16.30;45.10;;;;;;5061127;28;20453;-71
2022/08/21 04:58:21;;;;;;;10.20;4.37;;;16.30;45.20;;;;;;5066866;28;20461;-70
2022/08/21 05:00:48;;;;;;;6.97;5.17;;;16.40;45.10;;;;;;5063241;28;20579;-71
2022/08/21 05:03:18;;;;;;;6.57;4.63;;;16.40;44.90;;;;;;5061032;28;20469;-70
2022/08/21 05:05:45;;;;;;;7.20;4.63;;;16.50;44.90;;;;;;5058828;28;20472;-70
2022/08/21 05:08:15;;;;;;;6.80;4.93;;;16.50;44.70;;;;;;5073931;28;20472;-70
2022/08/21 05:10:42;;;;;;;8.00;5.40;;;16.60;44.60;;;;;;5065920;28;20602;-69
2022/08/21 05:13:09;;;;;;;7.20;5.07;;;16.70;44.60;;;;;;5065451;28;20463;-70
2022/08/21 05:15:37;;;;;;;6.47;4.50;;;16.70;44.30;;;;;;5068347;28;20479;-69
2022/08/21 05:18:04;;;;;;;6.30;4.40;;;16.80;44.00;;;;;;5071782;28;20835;-73
2022/08/21 05:20:34;;;;;;;6.83;5.10;;;16.80;43.80;;;;;;5072724;28;20492;-71
2022/08/21 05:23:01;;;;;;;6.27;4.43;;;17.00;43.20;;;;;;5067652;28;20464;-72
2022/08/21 05:25:28;;;;;;;6.50;4.70;;;17.00;43.00;;;;;;5066012;28;20461;-70
2022/08/21 05:27:56;;;;;;;6.20;4.00;;;17.10;42.60;;;;;;5071328;28;20464;-70
2022/08/21 05:30:23;;;;;;;7.03;3.93;;;17.20;42.10;;;;;;5067085;28;20453;-74
2022/08/21 05:32:50;;;;;;;5.97;4.07;;;17.30;42.10;;;;;;5066735;28;20462;-71
2022/08/21 05:35:16;;;;;;;6.33;4.47;;;17.40;41.90;;;;;;5062962;28;20461;-71
2022/08/21 05:37:44;;;;;;;6.17;4.13;;;17.50;41.80;;;;;;5076618;28;20463;-75
2022/08/21 05:40:12;;;;;;;6.03;4.20;;;17.80;41.50;;;;;;5077575;28;20485;-72
2022/08/21 05:42:38;;;;;;;6.13;4.00;;;18.00;40.90;;;;;;5077593;28;20462;-70
2022/08/21 05:45:06;;;;;;;5.30;3.20;;;18.20;40.30;;;;;;5072535;28;20469;-71
2022/08/21 05:47:32;;;;;;;5.40;3.50;;;18.50;39.20;;;;;;5064798;28;20469;-70
2022/08/21 05:49:59;;;;;;;5.57;4.00;;;18.60;38.40;;;;;;5067563;28;20453;-71
2022/08/21 05:52:26;;;;;;;6.87;4.10;;;18.60;37.60;;;;;;5067012;28;21005;-71
2022/08/21 05:54:54;;;;;;;6.47;4.13;;;18.70;38.00;;;;;;5064908;28;20450;-70
2022/08/21 05:57:21;;;;;;;5.77;3.50;;;18.90;36.80;;;;;;5068675;28;20462;-69
2022/08/21 05:59:48;;;;;;;6.60;3.60;;;19.00;36.30;;;;;;5071138;28;20480;-69
2022/08/21 06:02:15;;;;;;;5.80;3.50;;;19.20;35.60;;;;;;5066378;28;20481;-71
2022/08/21 06:04:42;;;;;;;6.00;3.50;;;19.60;34.90;;;;;;5063395;28;20454;-71
2022/08/21 06:07:09;;;;;;;5.70;3.30;;;20.80;32.70;;;;;;5068883;28;20461;-70
2022/08/21 06:09:37;;;;;;;4.80;2.87;;;22.50;27.20;;;;;;5066970;28;20458;-70
2022/08/21 06:12:08;;;;;;;5.63;3.10;;;23.00;24.20;;;;;;5067008;28;20477;-70
2022/08/21 06:14:35;;;;;;;5.73;3.00;;;23.60;22.40;;;;;;5066724;28;20578;-69
2022/08/21 06:17:05;;;;;;;10.93;3.80;;;23.60;21.30;;;;;;5067984;28;20453;-72
2022/08/21 06:19:32;;;;;;;5.20;2.73;;;25.30;19.50;;;;;;5066818;28;20456;-70
2022/08/21 06:21:58;;;;;;;4.00;2.30;;;27.70;15.30;;;;;;5066078;28;20483;-71
2022/08/21 06:24:25;;;;;;;4.80;2.43;;;29.90;10.50;;;;;;5064686;28;20461;-70
2022/08/21 06:26:53;;;;;;;4.70;2.27;;;31.80;6.80;;;;;;5074703;28;20463;-70
2022/08/21 06:29:21;;;;;;;4.37;2.10;;;33.20;4.00;;;;;;5065012;28;20453;-70
2022/08/21 06:31:50;;;;;;;3.87;1.83;;;34.40;1.50;;;;;;5064141;28;20477;-70
2022/08/21 06:34:17;;;;;;;4.17;2.03;;;35.60;1.00;;;;;;5064475;28;20464;-70
2022/08/21 06:36:45;;;;;;;4.87;1.90;;;36.50;1.00;;;;;;5063801;28;21213;-69
2022/08/21 06:39:13;;;;;;;4.30;2.13;;;37.60;1.00;;;;;;5063778;28;20450;-69
2022/08/21 06:41:40;;;;;;;3.50;1.70;;;38.40;1.00;;;;;;5064505;28;20586;-69
2022/08/21 06:44:07;;;;;;;4.20;2.20;;;39.10;1.00;;;;;;5063252;28;20457;-70
2022/08/21 06:46:35;;;;;;;6.47;2.17;;;39.90;1.00;;;;;;5073494;28;20952;-69
2022/08/21 06:49:02;;;;;;;3.80;1.83;;;40.60;1.00;;;;;;5065584;28;20461;-70
2022/08/21 06:51:29;;;;;;;3.80;1.80;;;41.20;1.00;;;;;;5063610;28;20495;-69
2022/08/21 06:53:56;;;;;;;5.60;1.57;;;41.80;1.00;;;;;;5063912;28;21018;-70
2022/08/21 06:56:23;;;;;;;4.67;1.83;;;42.30;1.00;;;;;;5064911;28;20464;-71
2022/08/21 06:58:50;;;;;;;4.20;1.80;;;42.80;1.00;;;;;;5063654;28;20470;-72
2022/08/21 07:01:17;;;;;;;3.90;1.80;;;43.30;1.00;;;;;;5063564;28;20481;-72
2022/08/21 07:03:45;;;;;;;4.30;1.53;;;43.80;1.00;;;;;;5064754;28;20948;-72
2022/08/21 07:06:12;;;;;;;4.77;1.50;;;44.40;1.00;;;;;;5061825;28;20458;-71
2022/08/21 07:08:39;;;;;;;6.33;1.60;;;44.80;1.00;;;;;;5059701;28;20465;-71
2022/08/21 07:11:13;;;;;;;4.30;1.70;;;45.30;1.00;;;;;;5064230;28;20848;-71
2022/08/21 07:13:39;;;;;;;5.40;1.70;;;45.80;1.00;;;;;;5054910;28;20465;-71
2022/08/21 07:16:08;;;;;;;4.30;1.43;;;46.10;1.00;;;;;;5067207;28;20539;-71
2022/08/21 07:18:35;;;;;;;3.57;1.77;;;46.40;1.00;;;;;;5064698;28;20457;-71
2022/08/21 07:21:04;;;;;;;3.57;1.70;;;46.70;1.00;;;;;;5062366;28;20492;-72
2022/08/21 07:23:34;;;;;;;6.53;1.70;;;47.10;1.00;;;;;;5062348;28;20459;-72
2022/08/21 07:26:01;;;;;;;5.00;1.97;;;47.50;1.00;;;;;;5064412;28;20461;-72
2022/08/21 07:28:28;;;;;;;5.77;1.60;;;47.90;1.00;;;;;;5059505;28;20460;-73
2022/08/21 07:30:58;;;;;;;4.90;2.17;;;48.00;1.00;;;;;;5025805;28;1047749;-73
2022/08/21 07:33:26;;;;;;;4.30;1.20;;;48.40;1.00;;;;;;5066925;28;20204;-72
2022/08/21 07:35:53;;;;;;;3.57;1.50;;;48.70;1.00;;;;;;5062723;28;21032;-72
2022/08/21 07:38:21;;;;;;;4.93;1.70;;;49.00;1.00;;;;;;5065543;28;20465;-73
2022/08/21 07:40:49;;;;;;;5.10;1.70;;;49.30;1.00;;;;;;5061277;28;20476;-73
2022/08/21 07:43:17;;;;;;;4.67;1.70;;;49.70;1.00;;;;;;5063055;28;20453;-72
2022/08/21 07:45:44;;;;;;;5.20;1.60;;;50.00;1.00;;;;;;5064027;28;20465;-72
2022/08/21 07:48:11;;;;;;;3.93;1.83;;;50.30;1.00;;;;;;5065300;28;20882;-72
2022/08/21 07:50:39;;;;;;;3.67;1.47;;;50.50;1.00;;;;;;5065706;28;20480;-72
2022/08/21 07:53:07;;;;;;;3.87;2.20;;;50.80;1.00;;;;;;5065872;28;20971;-71
2022/08/21 07:55:35;;;;;;;3.90;1.70;;;51.20;1.00;;;;;;5066156;28;20540;-72
2022/08/21 07:58:02;;;;;;;5.60;1.87;;;51.40;1.00;;;;;;5063202;28;20463;-71
2022/08/21 08:00:30;;;;;;;3.87;1.77;;;51.50;1.00;;;;;;5064148;28;21003;-71
2022/08/21 08:02:58;;;;;;;3.70;2.10;;;51.60;1.00;;;;;;5064729;28;20454;-71
2022/08/21 08:05:27;;;;;;;5.30;1.90;;;51.90;1.00;;;;;;5057965;28;20526;-72
2022/08/21 08:07:54;;;;;;;3.60;1.80;;;52.10;1.00;;;;;;5061220;28;21113;-73
2022/08/21 08:10:22;;;;;;;3.57;1.50;;;52.10;1.00;;;;;;5053762;28;20461;-72
2022/08/21 08:12:51;;;;;;;3.93;1.93;;;52.50;1.00;;;;;;5062980;28;21203;-72
2022/08/21 08:15:21;;;;;;;3.97;1.87;;;52.70;1.00;;;;;;5067775;28;20457;-72
2022/08/21 08:17:49;;;;;;;4.27;2.20;;;53.00;1.00;;;;;;5062019;28;20456;-72
2022/08/21 08:20:17;;;;;;;4.70;1.90;;;53.20;1.00;;;;;;5062488;28;20489;-72
2022/08/21 08:22:45;;;;;;;4.23;1.80;;;53.30;1.00;;;;;;5064388;28;20461;-72
2022/08/21 08:25:14;;;;;;;4.10;1.57;;;53.50;1.00;;;;;;5066276;28;20457;-72
2022/08/21 08:27:41;;;;;;;4.13;2.47;;;53.60;1.00;;;;;;5066514;28;20468;-72
2022/08/21 08:30:12;;;;;;;4.40;2.40;;;53.60;1.00;;;;;;5061706;28;20460;-72
2022/08/21 08:32:39;;;;;;;5.27;2.30;;;53.60;1.00;;;;;;5062436;28;20899;-72
2022/08/21 08:35:08;;;;;;;4.30;2.23;;;53.80;1.00;;;;;;5067048;28;20514;-72
2022/08/21 08:37:37;;;;;;;4.17;2.33;;;54.10;1.00;;;;;;5063563;28;20461;-71
2022/08/21 08:40:05;;;;;;;4.47;2.63;;;54.30;1.00;;;;;;5065596;28;20472;-71
2022/08/21 08:42:34;;;;;;;4.10;2.40;;;54.60;1.00;;;;;;5061890;28;20488;-72
2022/08/21 08:45:06;;;;;;;4.13;2.53;;;54.70;1.00;;;;;;5071140;28;20979;-72
2022/08/21 08:47:38;;;;;;;5.00;2.33;;;54.90;1.00;;;;;;5070293;28;20460;-73
2022/08/21 08:50:10;;;;;;;4.50;2.50;;;55.10;1.00;;;;;;5067611;28;20450;-72
2022/08/21 08:52:46;;;;;;;5.10;2.27;;;55.20;1.00;;;;;;5068215;28;20865;-72
2022/08/21 08:55:18;;;;;;;4.07;2.17;;;55.20;1.00;;;;;;5059832;28;20457;-72
2022/08/21 08:57:48;;;;;;;5.80;2.60;;;55.20;1.00;;;;;;5066133;28;20544;-72
2022/08/21 09:00:19;;;;;;;3.87;2.33;;;55.20;1.00;;;;;;5059169;28;20472;-73
2022/08/21 09:02:47;;;;;;;4.87;2.30;;;55.20;1.00;;;;;;5063703;28;20476;-72
2022/08/21 09:05:22;;;;;;;6.10;2.93;;;55.20;1.00;;;;;;5064676;28;20461;-72
2022/08/21 09:08:06;;;;;;;6.03;3.00;;;55.30;1.00;;;;;;5062351;28;20462;-72
2022/08/21 09:10:45;;;;;;;4.23;2.70;;;55.40;1.00;;;;;;5065903;28;20579;-72
2022/08/21 09:13:20;;;;;;;5.13;2.53;;;55.20;1.00;;;;;;5062243;28;20463;-72
2022/08/21 09:15:55;;;;;;;5.03;2.30;;;55.20;1.00;;;;;;5066584;28;20871;-72
2022/08/21 09:18:35;;;;;;;5.83;2.80;;;55.40;1.00;;;;;;5073894;28;20463;-72
2022/08/21 09:21:12;;;;;;;5.80;3.00;;;55.60;1.00;;;;;;5070837;28;20464;-72
2022/08/21 09:23:48;;;;;;;4.73;2.47;;;55.90;1.00;;;;;;5068264;28;20452;-72
2022/08/21 09:26:17;;;;;;;4.97;2.80;;;55.80;1.00;;;;;;5063333;28;20464;-73
2022/08/21 09:28:47;;;;;;;4.97;2.30;;;55.50;1.00;;;;;;5061345;28;20457;-72
2022/08/21 09:31:22;;;;;;;6.30;3.07;;;55.30;1.00;;;;;;5067136;28;20464;-72
2022/08/21 09:33:50;;;;;;;7.77;2.93;;;55.80;1.00;;;;;;5060896;28;20471;-72
2022/08/21 09:36:26;;;;;;;6.60;2.80;;;56.20;1.00;;;;;;5066243;28;20461;-73
2022/08/21 09:38:54;;;;;;;6.30;3.20;;;55.30;1.00;;;;;;5065578;28;20456;-74
2022/08/21 09:41:28;;;;;;;7.53;2.77;;;54.80;1.00;;;;;;5069970;28;20475;-72
2022/08/21 09:43:55;;;;;;;6.47;3.07;;;54.90;1.00;;;;;;5059612;28;21092;-72
2022/08/21 09:46:24;;;;;;;5.87;3.00;;;54.70;1.00;;;;;;5073881;28;20460;-72
2022/08/21 09:48:54;;;;;;;7.23;2.63;;;54.80;1.00;;;;;;5070298;28;20464;-73
2022/08/21 09:51:24;;;;;;;5.23;2.57;;;55.10;1.00;;;;;;5070288;28;20519;-72
2022/08/21 09:53:55;;;;;;;5.60;2.50;;;54.80;1.00;;;;;;5065350;28;20464;-73
2022/08/21 09:59:31;;;;;;;5.93;2.83;;;54.90;1.00;;;;;;5063822;28;20449;-71
2022/08/21 10:02:01;;;;;;;5.10;2.67;;;54.50;1.00;;;;;;5065395;28;20883;-72
2022/08/21 10:04:32;;;;;;;6.63;2.60;;;54.60;1.00;;;;;;5063900;28;20465;-72
2022/08/21 10:07:08;;;;;;;7.20;3.07;;;54.10;1.00;;;;;;5069527;28;20457;-71
2022/08/21 10:09:36;;;;;;;5.93;2.30;;;54.10;1.00;;;;;;5066884;28;20460;-72
2022/08/21 10:12:16;;;;;;;5.77;2.80;;;54.20;1.00;;;;;;5065875;28;20468;-72
2022/08/21 10:14:53;;;;;;;6.60;2.90;;;53.90;1.00;;;;;;5068910;28;20456;-72
2022/08/21 10:17:29;;;;;;;5.30;2.13;;;53.40;1.00;;;;;;5068155;28;20448;-72
2022/08/21 10:20:05;;;;;;;6.10;2.90;;;53.10;1.00;;;;;;5067278;28;20535;-72
2022/08/21 10:22:42;;;;;;;4.87;2.47;;;53.20;1.00;;;;;;5068505;28;20838;-72
2022/08/21 10:25:18;;;;;;;6.00;3.00;;;52.90;1.00;;;;;;5072900;28;20453;-72
2022/08/21 10:27:56;;;;;;;7.37;2.80;;;52.30;1.00;;;;;;5069974;28;20514;-72
2022/08/21 10:30:37;;;;;;;5.67;2.87;;;51.90;1.00;;;;;;5066203;28;20457;-72
2022/08/21 10:33:21;;;;;;;4.47;2.93;;;51.70;1.00;;;;;;5070450;28;20476;-72
2022/08/21 10:35:56;;;;;;;6.83;2.63;;;51.80;1.00;;;;;;5054079;28;20469;-73
2022/08/21 10:38:50;;;;;;;6.67;3.03;;;51.90;1.00;;;;;;5069877;28;20452;-73
2022/08/21 10:41:29;;;;;;;4.40;2.37;;;51.90;1.00;;;;;;5061654;28;21000;-69
2022/08/21 10:44:10;;;;;;;4.60;2.33;;;50.90;1.00;;;;;;5062226;28;21495;-71
2022/08/21 10:46:50;;;;;;;6.50;2.63;;;48.90;1.00;;;;;;5067518;28;20452;-72
2022/08/21 10:49:31;;;;;;;6.20;2.87;;;46.10;1.00;;;;;;5065228;28;20503;-72
2022/08/21 10:52:18;;;;;;;5.33;2.80;;;43.20;1.00;;;;;;5061556;28;20505;-71
2022/08/21 10:54:52;;;;;;;4.13;2.30;;;41.20;1.00;;;;;;5059743;28;20457;-71
2022/08/21 10:57:27;;;;;;;5.40;2.57;;;39.60;1.00;;;;;;5059841;28;20457;-72
2022/08/21 10:59:58;;;;;;;6.93;2.20;;;38.30;1.00;;;;;;5062390;28;20976;-70
2022/08/21 11:02:32;;;;;;;6.30;2.30;;;37.20;1.00;;;;;;5063663;28;20816;-70
2022/08/21 11:05:06;;;;;;;6.00;2.50;;;36.30;1.00;;;;;;5067751;28;20461;-70
2022/08/21 11:07:38;;;;;;;5.90;2.90;;;35.50;1.00;;;;;;5065466;28;20460;-71
2022/08/21 11:10:11;;;;;;;5.33;2.53;;;34.90;1.00;;;;;;5064581;28;20465;-70
2022/08/21 11:12:43;;;;;;;6.27;2.73;;;34.10;1.00;;;;;;5065663;28;20508;-70
2022/08/21 11:15:25;;;;;;;6.63;3.60;;;33.40;1.00;;;;;;5073973;28;20457;-70
2022/08/21 11:17:57;;;;;;;6.20;2.70;;;33.00;1.00;;;;;;5064393;28;20464;-69
2022/08/21 11:20:31;;;;;;;6.40;3.00;;;32.80;1.00;;;;;;5075151;28;20556;-70
2022/08/21 11:23:05;;;;;;;6.20;2.60;;;32.70;1.00;;;;;;5066598;28;20547;-72
2022/08/21 11:25:36;;;;;;;7.33;3.50;;;32.50;1.00;;;;;;5068410;28;20455;-71
2022/08/21 11:28:09;;;;;;;4.50;2.60;;;32.30;1.00;;;;;;5063826;28;20485;-70
2022/08/21 11:30:46;;;;;;;7.57;3.00;;;31.90;1.00;;;;;;5066588;28;20570;-70
2022/08/21 11:33:31;;;;;;;6.40;2.87;;;31.70;1.00;;;;;;5063830;28;20477;-70
2022/08/21 11:36:06;;;;;;;5.57;2.70;;;31.50;1.00;;;;;;5066345;28;20484;-73
2022/08/21 11:38:41;;;;;;;6.47;3.13;;;31.20;1.00;;;;;;5064049;28;20475;-70
2022/08/21 11:41:28;;;;;;;7.33;3.23;;;30.90;1.00;;;;;;5070662;28;20522;-70
2022/08/21 11:44:09;;;;;;;5.20;2.70;;;30.40;1.00;;;;;;5066551;28;20461;-69
2022/08/21 11:46:44;;;;;;;4.40;2.57;;;30.30;1.00;;;;;;5062350;28;20457;-70
2022/08/21 11:49:39;;;;;;;10.27;3.20;;;29.90;1.00;;;;;;5071101;28;20455;-70
2022/08/21 11:52:14;;;;;;;7.37;2.97;;;29.80;1.00;;;;;;5062089;28;20477;-69
2022/08/21 11:54:45;;;;;;;7.47;3.03;;;29.70;1.00;;;;;;5065943;28;20964;-72
2022/08/21 11:57:21;;;;;;;8.90;3.20;;;29.60;1.00;;;;;;5058261;28;20853;-69
2022/08/21 12:00:06;;;;;;;8.13;3.47;;;29.50;1.00;;;;;;5064237;28;20980;-70
2022/08/21 12:02:36;;;;;;;7.13;3.10;;;29.40;1.00;;;;;;5063666;28;20481;-70
2022/08/21 12:05:07;;;;;;;5.27;2.83;;;29.30;1.00;;;;;;5068759;28;20460;-71
2022/08/21 12:07:36;;;;;;;10.93;3.20;;;29.20;1.00;;;;;;5071708;28;20465;-71
2022/08/21 12:10:09;;;;;;;8.53;4.20;;;29.00;1.00;;;;;;5067814;28;20479;-69
2022/08/21 12:12:38;;;;;;;5.50;2.63;;;28.90;1.00;;;;;;5062916;28;20484;-71
2022/08/21 12:15:17;;;;;;;8.77;3.03;;;28.70;1.00;;;;;;5062989;28;20458;-70
2022/08/21 12:17:55;;;;;;;6.20;3.03;;;28.50;1.00;;;;;;5063628;28;20453;-70
2022/08/21 12:20:34;;;;;;;6.23;2.83;;;28.40;1.00;;;;;;5069015;28;20471;-71
2022/08/21 12:23:06;;;;;;;7.30;2.90;;;28.20;1.20;;;;;;5066892;28;20975;-70
2022/08/21 12:25:41;;;;;;;7.80;3.33;;;28.10;1.00;;;;;;5061408;28;20895;-70
2022/08/21 12:28:10;;;;;;;7.30;3.23;;;27.90;1.00;;;;;;5065630;28;22158;-70
2022/08/21 12:30:40;;;;;;;6.50;3.43;;;27.80;1.20;;;;;;5068133;28;20473;-70
2022/08/21 12:33:21;;;;;;;7.20;3.07;;;27.70;1.50;;;;;;5063506;28;20480;-69
2022/08/21 12:35:50;;;;;;;5.43;2.40;;;27.60;1.40;;;;;;5061522;28;21490;-71
2022/08/21 12:38:21;;;;;;;4.93;2.90;;;27.50;2.30;;;;;;5066084;28;20476;-69
2022/08/21 12:40:54;;;;;;;5.60;3.00;;;27.50;3.20;;;;;;5066003;28;20571;-69
2022/08/21 12:43:28;;;;;;;8.83;2.77;;;27.40;3.20;;;;;;5068097;28;20453;-70
2022/08/21 12:45:56;;;;;;;8.43;2.47;;;27.40;1.80;;;;;;5067346;28;20460;-71
2022/08/21 12:48:29;;;;;;;7.60;2.70;;;27.30;1.80;;;;;;5066493;28;20537;-71
2022/08/21 12:51:00;;;;;;;7.70;2.93;;;27.30;3.00;;;;;;5067762;28;20486;-71
2022/08/21 12:53:32;;;;;;;7.73;2.57;;;27.30;3.20;;;;;;5067698;28;20484;-70
2022/08/21 12:56:03;;;;;;;6.23;2.60;;;27.20;2.30;;;;;;5068014;28;20457;-70
2022/08/21 12:58:32;;;;;;;7.90;2.90;;;27.20;2.80;;;;;;5070487;28;20551;-69
2022/08/21 13:01:05;;;;;;;7.23;3.03;;;27.20;3.10;;;;;;5064994;28;20484;-69
2022/08/21 13:03:36;;;;;;;6.60;2.60;;;27.20;3.80;;;;;;5065182;28;20547;-70
2022/08/21 13:06:05;;;;;;;5.50;2.87;;;27.20;4.20;;;;;;5066606;28;20457;-70